Time;durP1;ratioP1;P1;durP2;ratioP2;P2;SDS_P1;SDS_P2;PMS_P1;PMS_P2;Temp;Humidity;BMP_temperature;BMP_pressure;BME280_temperature;BME280_humidity;BME280_pressure;Samples;Min_cycle;Max_cycle;Signal;HPM_P1;HPM_P2
2023/12/09 00:02:08;;;;;;;22.88;15.18;;;5.20;97.60;;;;;;4992808;28;20030;-73
2023/12/09 00:04:36;;;;;;;20.15;13.85;;;5.20;97.50;;;;;;5010015;28;20034;-75
2023/12/09 00:07:03;;;;;;;22.35;14.40;;;5.20;97.30;;;;;;5009421;28;20034;-76
2023/12/09 00:09:31;;;;;;;19.73;13.07;;;5.10;97.50;;;;;;5009425;28;20128;-75
2023/12/09 00:11:59;;;;;;;19.85;13.18;;;5.20;97.50;;;;;;5009419;28;20061;-76
2023/12/09 00:14:26;;;;;;;20.17;13.57;;;5.20;97.30;;;;;;5009734;28;20117;-76
2023/12/09 00:16:53;;;;;;;20.88;14.15;;;5.10;97.50;;;;;;5009057;28;20034;-76
2023/12/09 00:19:20;;;;;;;24.52;15.68;;;5.10;97.90;;;;;;5009573;28;20046;-75
2023/12/09 00:21:48;;;;;;;21.00;14.32;;;5.20;97.90;;;;;;5009643;28;20385;-77
2023/12/09 00:24:15;;;;;;;21.58;14.10;;;5.20;97.70;;;;;;5009631;28;20112;-75
2023/12/09 00:26:46;;;;;;;18.20;13.02;;;5.20;97.50;;;;;;5008014;28;20485;-73
2023/12/09 00:29:13;;;;;;;;;;;5.20;97.70;;;;;;5010179;28;20030;-76
2023/12/09 00:31:41;;;;;;;14.90;10.85;;;5.30;97.50;;;;;;4991682;28;19917;-75
2023/12/09 00:34:09;;;;;;;18.52;10.75;;;5.30;96.30;;;;;;5009695;28;20040;-72
2023/12/09 00:36:37;;;;;;;12.45;9.20;;;5.30;96.00;;;;;;5009257;28;20438;-75
2023/12/09 00:39:05;;;;;;;11.25;8.80;;;5.00;94.90;;;;;;5009235;28;20392;-77
2023/12/09 00:41:32;;;;;;;11.57;8.10;;;5.10;95.20;;;;;;5009495;28;20041;-75
2023/12/09 00:44:00;;;;;;;11.43;8.25;;;5.10;94.90;;;;;;5008551;28;20117;-74
2023/12/09 00:46:27;;;;;;;13.15;8.68;;;4.90;94.70;;;;;;5010206;28;20052;-74
2023/12/09 00:48:54;;;;;;;8.73;7.63;;;4.90;94.80;;;;;;5012288;28;20038;-74
2023/12/09 00:51:22;;;;;;;10.10;7.95;;;4.80;94.90;;;;;;5013381;28;20038;-76
2023/12/09 00:53:49;;;;;;;10.75;7.65;;;5.00;94.80;;;;;;5012778;28;20045;-77
2023/12/09 00:56:17;;;;;;;11.70;8.02;;;5.00;94.70;;;;;;5013020;28;20038;-75
2023/12/09 00:59:01;;;;;;;9.73;7.47;;;5.00;94.40;;;;;;5013010;28;20099;-77
2023/12/09 01:01:28;;;;;;;11.48;7.95;;;5.00;94.80;;;;;;5012472;28;20057;-73
2023/12/09 01:03:56;;;;;;;18.98;11.48;;;4.90;94.70;;;;;;5012335;28;20049;-74
2023/12/09 01:06:24;;;;;;;16.98;12.73;;;5.10;95.80;;;;;;5011780;28;20037;-77
2023/12/09 01:08:51;;;;;;;10.65;8.57;;;5.30;95.20;;;;;;5012328;28;20113;-75
2023/12/09 01:11:18;;;;;;;10.95;8.15;;;5.00;94.10;;;;;;5012879;28;20044;-75
2023/12/09 01:13:45;;;;;;;10.50;7.60;;;4.90;94.30;;;;;;5012159;28;20040;-77
2023/12/09 01:16:13;;;;;;;11.55;9.43;;;4.80;94.70;;;;;;5007953;28;20392;-75
2023/12/09 01:18:40;;;;;;;14.18;11.00;;;4.80;94.70;;;;;;5012040;28;20033;-73
2023/12/09 01:21:07;;;;;;;10.43;8.50;;;5.00;94.60;;;;;;5012683;28;20030;-76
2023/12/09 01:23:34;;;;;;;11.13;8.27;;;5.00;94.30;;;;;;5012728;28;20064;-75
2023/12/09 01:26:02;;;;;;;9.68;7.72;;;4.90;94.30;;;;;;5012374;28;20127;-76
2023/12/09 01:28:29;;;;;;;9.63;7.70;;;4.70;94.40;;;;;;5012669;28;20041;-76
2023/12/09 01:30:56;;;;;;;10.82;8.57;;;4.50;94.70;;;;;;5012578;28;20038;-75
2023/12/09 01:33:24;;;;;;;10.13;8.30;;;4.60;94.80;;;;;;5012319;28;20034;-79
2023/12/09 01:35:51;;;;;;;8.82;6.97;;;4.70;94.70;;;;;;5012530;28;20030;-77
2023/12/09 01:38:19;;;;;;;8.55;6.90;;;4.60;94.60;;;;;;5012864;28;20596;-80
2023/12/09 01:40:53;;;;;;;9.38;7.47;;;4.50;94.30;;;;;;5012314;28;20030;-75
2023/12/09 01:43:21;;;;;;;8.45;7.13;;;4.50;94.50;;;;;;5012234;28;20036;-73
2023/12/09 01:45:51;;;;;;;9.68;7.78;;;4.50;94.60;;;;;;5011563;28;20437;-73
2023/12/09 01:48:21;;;;;;;10.25;7.45;;;4.50;94.60;;;;;;5012180;28;20034;-75
2023/12/09 01:50:49;;;;;;;10.18;7.90;;;4.50;94.70;;;;;;5010907;28;20049;-75
2023/12/09 01:53:16;;;;;;;9.13;7.35;;;4.50;94.50;;;;;;5012058;28;20489;-74
2023/12/09 01:55:44;;;;;;;9.40;8.40;;;4.50;94.20;;;;;;5011521;28;20481;-74
2023/12/09 01:58:12;;;;;;;8.02;7.20;;;4.40;94.30;;;;;;5011194;28;20040;-79
2023/12/09 02:00:40;;;;;;;8.80;7.00;;;4.50;94.40;;;;;;5010357;28;20121;-75
2023/12/09 02:03:07;;;;;;;9.60;7.55;;;4.50;94.50;;;;;;5008775;28;20377;-75
2023/12/09 02:05:35;;;;;;;9.70;7.82;;;4.50;94.40;;;;;;5013087;28;20048;-76
2023/12/09 02:08:02;;;;;;;10.10;8.25;;;4.50;94.20;;;;;;5011389;28;20046;-76
2023/12/09 02:10:29;;;;;;;12.73;7.72;;;4.50;94.30;;;;;;5011655;28;20137;-76
2023/12/09 02:13:20;;;;;;;10.55;7.82;;;4.50;94.10;;;;;;5011004;28;20125;-75
2023/12/09 02:16:00;;;;;;;11.02;7.32;;;4.50;94.00;;;;;;4992343;28;20077;-74
2023/12/09 02:18:28;;;;;;;9.40;7.85;;;4.50;93.80;;;;;;5009704;28;20034;-73
2023/12/09 02:20:56;;;;;;;10.70;7.65;;;4.50;93.80;;;;;;5010870;28;20069;-75
2023/12/09 02:23:23;;;;;;;10.23;8.05;;;4.50;94.00;;;;;;5009779;28;20038;-75
2023/12/09 02:25:56;;;;;;;8.30;7.18;;;4.50;94.10;;;;;;5010834;28;20038;-76
2023/12/09 02:28:29;;;;;;;9.02;7.57;;;4.50;93.80;;;;;;5009362;28;20074;-76
2023/12/09 02:31:03;;;;;;;10.25;8.00;;;4.40;93.80;;;;;;5011078;28;20036;-77
2023/12/09 02:33:31;;;;;;;8.65;7.35;;;4.50;93.70;;;;;;5011218;28;20070;-76
2023/12/09 02:36:01;;;;;;;9.80;7.53;;;4.50;93.90;;;;;;5010150;28;20041;-77
2023/12/09 02:38:30;;;;;;;8.18;7.20;;;4.50;93.80;;;;;;5010228;28;20084;-77
2023/12/09 02:40:58;;;;;;;9.23;7.63;;;4.50;93.70;;;;;;5009922;28;20041;-75
2023/12/09 02:43:25;;;;;;;8.77;7.75;;;4.50;93.60;;;;;;5010993;28;20523;-75
2023/12/09 02:45:52;;;;;;;9.52;7.78;;;4.50;93.40;;;;;;5009081;28;20066;-75
2023/12/09 02:48:22;;;;;;;8.15;7.25;;;4.60;93.20;;;;;;5010478;28;20080;-75
2023/12/09 02:50:49;;;;;;;8.52;7.38;;;4.60;93.20;;;;;;5010436;28;20034;-76
2023/12/09 02:53:17;;;;;;;9.35;7.65;;;4.50;93.50;;;;;;5010378;28;20037;-76
2023/12/09 02:55:44;;;;;;;8.23;7.40;;;4.60;93.50;;;;;;5010371;28;20065;-76
2023/12/09 02:58:12;;;;;;;10.25;8.00;;;4.60;93.60;;;;;;5009384;28;20405;-76
2023/12/09 03:00:39;;;;;;;11.38;8.57;;;4.80;93.80;;;;;;5006729;28;20045;-77
2023/12/09 03:03:07;;;;;;;16.38;11.02;;;4.70;94.40;;;;;;5010919;28;20432;-77
2023/12/09 03:05:34;;;;;;;18.08;12.02;;;4.80;95.50;;;;;;5010556;28;20155;-79
2023/12/09 03:08:01;;;;;;;17.13;12.65;;;4.80;96.70;;;;;;5010080;28;20030;-78
2023/12/09 03:10:29;;;;;;;16.80;12.02;;;4.80;97.20;;;;;;5010318;28;20045;-78
2023/12/09 03:12:56;;;;;;;17.23;12.07;;;4.80;97.30;;;;;;4992616;28;20470;-80
2023/12/09 03:15:23;;;;;;;14.02;11.27;;;4.80;96.80;;;;;;5006596;28;20038;-78
2023/12/09 03:17:51;;;;;;;15.18;10.30;;;4.90;96.20;;;;;;5010118;28;20041;-74
2023/12/09 03:20:20;;;;;;;14.10;10.82;;;4.90;96.10;;;;;;5010165;28;20119;-75
2023/12/09 03:22:47;;;;;;;16.55;11.52;;;4.90;96.50;;;;;;5010305;28;20480;-74
2023/12/09 03:25:15;;;;;;;18.70;11.85;;;4.80;96.80;;;;;;5006716;28;20509;-75
2023/12/09 03:27:42;;;;;;;15.50;10.60;;;4.70;97.10;;;;;;5009240;28;20261;-74
2023/12/09 03:30:10;;;;;;;16.40;10.43;;;4.80;96.80;;;;;;5009768;28;20038;-76
2023/12/09 03:32:40;;;;;;;14.32;10.43;;;4.80;96.50;;;;;;5008749;28;20042;-77
2023/12/09 03:35:09;;;;;;;14.10;9.93;;;4.90;96.30;;;;;;5008650;28;20045;-78
2023/12/09 03:37:37;;;;;;;14.15;10.45;;;4.90;96.20;;;;;;5009777;28;20057;-77
2023/12/09 03:40:05;;;;;;;15.10;10.68;;;5.00;96.00;;;;;;5009797;28;20111;-78
2023/12/09 03:42:32;;;;;;;15.18;10.55;;;5.00;96.50;;;;;;5009968;28;20168;-78
2023/12/09 03:44:59;;;;;;;18.75;11.27;;;4.90;96.80;;;;;;5009932;28;20038;-76
2023/12/09 03:47:27;;;;;;;17.88;12.02;;;4.90;97.20;;;;;;5009810;28;20425;-78
2023/12/09 03:49:55;;;;;;;16.40;11.77;;;4.80;97.70;;;;;;4993397;28;20058;-77
2023/12/09 03:52:23;;;;;;;16.02;11.55;;;4.80;97.50;;;;;;5010881;28;20041;-77
2023/12/09 03:54:51;;;;;;;17.65;11.43;;;4.90;97.60;;;;;;5008696;28;20061;-77
2023/12/09 03:57:18;;;;;;;14.77;11.00;;;5.00;97.60;;;;;;5010482;28;20109;-78
2023/12/09 03:59:45;;;;;;;17.80;11.88;;;4.90;97.60;;;;;;5009447;28;20088;-77
2023/12/09 04:02:14;;;;;;;15.90;11.20;;;4.90;97.70;;;;;;5009926;28;20114;-75
2023/12/09 04:04:41;;;;;;;16.90;11.88;;;5.00;97.10;;;;;;5008953;28;20041;-75
2023/12/09 04:07:08;;;;;;;18.33;12.98;;;5.00;96.90;;;;;;5009801;28;20122;-77
2023/12/09 04:09:35;;;;;;;19.80;12.73;;;5.00;97.30;;;;;;5009147;28;20048;-75
2023/12/09 04:12:03;;;;;;;22.73;13.85;;;4.90;97.90;;;;;;5008186;28;20117;-74
2023/12/09 04:14:31;;;;;;;19.27;12.88;;;4.80;98.30;;;;;;5009759;28;20518;-74
2023/12/09 04:16:58;;;;;;;23.23;13.68;;;4.80;98.50;;;;;;5009362;28;20151;-75
2023/12/09 04:19:25;;;;;;;19.17;12.88;;;4.70;98.90;;;;;;5010390;28;20061;-77
2023/12/09 04:21:52;;;;;;;19.30;13.52;;;4.70;99.10;;;;;;5013407;28;20045;-78
2023/12/09 04:24:20;;;;;;;20.35;13.10;;;4.60;99.20;;;;;;5013163;28;20117;-76
2023/12/09 04:26:47;;;;;;;22.17;14.43;;;4.60;99.40;;;;;;5008501;28;20034;-75
2023/12/09 04:29:14;;;;;;;18.75;13.45;;;4.60;99.50;;;;;;5013291;28;20041;-77
2023/12/09 04:31:42;;;;;;;22.75;13.48;;;4.70;99.40;;;;;;5009695;28;20076;-75
2023/12/09 04:34:10;;;;;;;21.20;13.80;;;4.80;99.40;;;;;;5013550;28;20030;-76
2023/12/09 04:36:38;;;;;;;19.65;13.02;;;4.80;99.60;;;;;;5013989;28;20041;-76
2023/12/09 04:39:05;;;;;;;17.90;12.90;;;4.70;99.90;;;;;;5012831;28;20038;-75
2023/12/09 04:41:33;;;;;;;18.77;12.68;;;4.80;99.80;;;;;;4996364;28;20033;-76
2023/12/09 04:44:00;;;;;;;20.77;13.93;;;4.80;99.80;;;;;;5013054;28;20131;-76
2023/12/09 04:46:28;;;;;;;20.27;12.75;;;4.80;99.60;;;;;;5013083;28;20049;-78
2023/12/09 04:48:56;;;;;;;24.15;14.20;;;4.70;99.70;;;;;;5013179;28;20412;-75
2023/12/09 04:51:24;;;;;;;21.02;12.98;;;4.70;99.80;;;;;;5013604;28;20038;-74
2023/12/09 04:53:51;;;;;;;14.75;11.20;;;4.70;99.40;;;;;;5012173;28;20377;-73
2023/12/09 04:56:19;;;;;;;12.00;9.35;;;4.80;98.40;;;;;;5013074;28;20034;-76
2023/12/09 04:58:46;;;;;;;14.45;9.43;;;4.60;96.80;;;;;;5012839;28;20526;-74
2023/12/09 05:01:13;;;;;;;13.20;10.75;;;4.40;96.40;;;;;;5012889;28;20038;-75
2023/12/09 05:03:41;;;;;;;15.32;10.50;;;4.50;97.10;;;;;;4994083;28;20149;-76
2023/12/09 05:06:08;;;;;;;13.38;9.85;;;4.60;97.30;;;;;;5012853;28;20437;-77
2023/12/09 05:08:36;;;;;;;14.20;9.90;;;4.70;97.80;;;;;;5012195;28;20040;-75
2023/12/09 05:11:03;;;;;;;11.85;9.65;;;4.80;97.60;;;;;;4998979;28;20038;-73
2023/12/09 05:13:31;;;;;;;12.32;9.60;;;4.70;97.10;;;;;;5012493;28;20371;-74
2023/12/09 05:15:58;;;;;;;11.65;9.23;;;4.70;96.90;;;;;;5012609;28;20109;-76
2023/12/09 05:18:25;;;;;;;12.32;8.93;;;4.70;97.00;;;;;;5012678;28;20045;-76
2023/12/09 05:20:53;;;;;;;11.68;9.32;;;4.70;96.60;;;;;;5012869;28;20033;-77
2023/12/09 05:23:20;;;;;;;11.98;9.30;;;4.80;96.60;;;;;;5012648;28;20050;-76
2023/12/09 05:25:49;;;;;;;14.13;9.70;;;4.80;96.50;;;;;;5012502;28;20426;-75
2023/12/09 05:28:16;;;;;;;12.27;8.82;;;4.90;96.00;;;;;;5012293;28;20129;-75
2023/12/09 05:30:44;;;;;;;12.60;9.25;;;4.90;96.10;;;;;;5011832;28;20053;-77
2023/12/09 05:33:11;;;;;;;13.05;8.90;;;4.80;96.20;;;;;;5010964;28;20041;-74
2023/12/09 05:35:39;;;;;;;10.70;8.85;;;4.90;96.40;;;;;;5012210;28;20385;-75
2023/12/09 05:38:06;;;;;;;10.57;8.32;;;4.90;96.10;;;;;;5012174;28;20033;-74
2023/12/09 05:40:33;;;;;;;14.45;8.77;;;4.80;95.90;;;;;;5012499;28;20113;-75
2023/12/09 05:43:02;;;;;;;9.50;8.20;;;4.80;95.00;;;;;;5012099;28;20030;-74
2023/12/09 05:45:29;;;;;;;10.40;8.75;;;4.70;95.20;;;;;;5011985;28;20080;-75
2023/12/09 05:47:57;;;;;;;11.30;8.43;;;4.70;95.50;;;;;;5012016;28;20079;-76
2023/12/09 05:50:25;;;;;;;9.95;8.40;;;4.60;95.50;;;;;;4995168;28;20041;-77
2023/12/09 05:52:52;;;;;;;9.57;7.50;;;4.40;95.00;;;;;;5011712;28;20096;-76
2023/12/09 05:55:19;;;;;;;9.90;7.88;;;4.30;94.90;;;;;;5011597;28;20042;-73
2023/12/09 05:57:46;;;;;;;9.32;7.45;;;4.30;94.90;;;;;;4994594;28;20120;-76
2023/12/09 06:00:14;;;;;;;10.32;8.27;;;4.30;94.90;;;;;;4989007;28;20069;-75
2023/12/09 06:02:41;;;;;;;10.70;7.68;;;4.30;95.30;;;;;;4992973;28;20438;-75
2023/12/09 06:05:09;;;;;;;9.90;7.40;;;4.30;95.30;;;;;;5011076;28;20084;-76
2023/12/09 06:07:36;;;;;;;9.00;7.65;;;4.30;94.80;;;;;;5011894;28;20036;-75
2023/12/09 06:10:05;;;;;;;9.63;7.55;;;4.20;94.80;;;;;;4994267;28;20136;-75
2023/12/09 06:12:32;;;;;;;11.10;8.57;;;4.30;94.90;;;;;;5012329;28;20117;-77
2023/12/09 06:15:00;;;;;;;9.45;7.00;;;4.20;94.50;;;;;;5011171;28;20108;-77
2023/12/09 06:17:28;;;;;;;7.15;6.45;;;4.30;93.80;;;;;;5012198;28;20373;-75
2023/12/09 06:19:55;;;;;;;8.23;6.95;;;4.30;93.80;;;;;;4993403;28;20038;-75
2023/12/09 06:22:22;;;;;;;8.27;6.90;;;4.30;93.80;;;;;;5011340;28;20034;-76
2023/12/09 06:24:51;;;;;;;8.73;6.97;;;4.30;93.60;;;;;;4993590;28;20067;-76
2023/12/09 06:27:18;;;;;;;8.05;7.18;;;4.30;93.60;;;;;;5011974;28;20108;-76
2023/12/09 06:29:46;;;;;;;7.88;7.07;;;4.30;93.70;;;;;;5010681;28;20116;-76
2023/12/09 06:32:13;;;;;;;9.52;7.45;;;4.30;93.70;;;;;;5008361;28;20433;-76
2023/12/09 06:34:41;;;;;;;8.55;6.90;;;4.30;93.80;;;;;;5010987;28;20030;-75
2023/12/09 06:37:08;;;;;;;8.63;6.78;;;4.30;94.00;;;;;;5010312;28;20408;-72
2023/12/09 06:39:36;;;;;;;8.95;7.30;;;4.40;94.00;;;;;;5011360;28;20092;-76
2023/12/09 06:42:05;;;;;;;10.55;8.00;;;4.40;93.80;;;;;;5010830;28;20119;-74
2023/12/09 06:44:32;;;;;;;9.35;7.22;;;4.50;93.90;;;;;;5011110;28;20133;-75
2023/12/09 06:47:00;;;;;;;10.60;8.02;;;4.50;93.60;;;;;;5010462;28;20108;-74
2023/12/09 06:49:27;;;;;;;9.25;7.40;;;4.60;93.80;;;;;;5011384;28;20050;-74
2023/12/09 06:51:54;;;;;;;9.02;7.63;;;4.60;93.40;;;;;;5009926;28;20513;-75
2023/12/09 06:54:22;;;;;;;10.30;8.32;;;4.50;93.60;;;;;;5010822;28;20034;-74
2023/12/09 06:56:51;;;;;;;11.18;7.55;;;4.60;93.60;;;;;;5010303;28;20388;-77
2023/12/09 06:59:19;;;;;;;9.60;7.30;;;4.50;93.60;;;;;;5010176;28;20036;-73
2023/12/09 07:01:49;;;;;;;10.70;7.70;;;4.40;93.70;;;;;;5008911;28;20033;-77
2023/12/09 07:04:16;;;;;;;9.20;7.57;;;4.60;93.70;;;;;;5008349;28;20052;-76
2023/12/09 07:06:44;;;;;;;10.23;7.88;;;4.70;94.20;;;;;;5005682;28;20052;-75
2023/12/09 07:09:11;;;;;;;9.68;7.60;;;4.80;93.80;;;;;;4992568;28;20053;-77
2023/12/09 07:11:38;;;;;;;11.65;7.88;;;4.70;93.60;;;;;;4992923;28;20054;-75
2023/12/09 07:14:06;;;;;;;11.13;7.93;;;4.70;94.00;;;;;;5010200;28;20096;-76
2023/12/09 07:16:33;;;;;;;9.15;7.05;;;4.80;93.90;;;;;;4990947;28;20041;-75
2023/12/09 07:19:00;;;;;;;9.13;7.72;;;4.70;93.20;;;;;;5010163;28;20058;-75
2023/12/09 07:21:28;;;;;;;9.10;7.05;;;4.60;93.40;;;;;;5010298;28;20087;-76
2023/12/09 07:23:56;;;;;;;8.15;7.00;;;4.70;93.40;;;;;;5010232;28;20033;-77
2023/12/09 07:26:24;;;;;;;8.80;7.30;;;4.70;93.10;;;;;;5010241;28;20434;-76
2023/12/09 07:28:51;;;;;;;7.65;6.70;;;4.70;93.00;;;;;;5009559;28;20052;-77
2023/12/09 07:31:18;;;;;;;9.27;6.90;;;4.90;92.80;;;;;;5010830;28;20105;-76
2023/12/09 07:33:46;;;;;;;7.95;6.55;;;4.90;92.60;;;;;;5009206;28;20034;-77
2023/12/09 07:36:13;;;;;;;7.85;6.35;;;4.70;92.80;;;;;;5008868;28;20050;-77
2023/12/09 07:38:41;;;;;;;9.07;6.70;;;4.70;92.70;;;;;;5009508;28;20034;-75
2023/12/09 07:41:08;;;;;;;7.60;6.60;;;4.80;92.90;;;;;;5010523;28;20045;-77
2023/12/09 07:43:35;;;;;;;8.38;6.65;;;5.00;92.80;;;;;;5009997;28;20053;-76
2023/12/09 07:46:06;;;;;;;9.20;7.55;;;5.00;92.80;;;;;;5010204;28;20392;-76
2023/12/09 07:48:34;;;;;;;8.43;6.95;;;4.90;93.00;;;;;;5009448;28;20111;-75
2023/12/09 07:51:02;;;;;;;8.25;6.70;;;4.90;92.50;;;;;;5009949;28;20065;-77
2023/12/09 07:53:29;;;;;;;8.05;6.82;;;4.90;92.60;;;;;;5009753;28;20030;-76
2023/12/09 07:55:57;;;;;;;9.13;7.07;;;4.90;92.60;;;;;;5008953;28;20374;-77
2023/12/09 07:58:24;;;;;;;8.18;6.93;;;4.90;92.30;;;;;;5010235;28;20040;-78
2023/12/09 08:00:52;;;;;;;7.57;6.50;;;4.90;92.70;;;;;;5009553;28;20105;-74
2023/12/09 08:03:20;;;;;;;7.57;6.70;;;5.00;92.60;;;;;;5008352;28;20120;-77
2023/12/09 08:05:47;;;;;;;7.65;6.53;;;5.20;92.40;;;;;;5006068;28;20382;-75
2023/12/09 08:08:14;;;;;;;8.40;6.57;;;5.30;92.40;;;;;;5007675;28;20046;-75
2023/12/09 08:10:42;;;;;;;8.45;6.97;;;5.40;92.50;;;;;;4987228;28;20112;-73
2023/12/09 08:13:11;;;;;;;18.63;12.38;;;5.30;92.20;;;;;;5004110;28;20100;-78
2023/12/09 08:15:38;;;;;;;12.32;9.05;;;5.60;93.20;;;;;;5008684;28;20139;-73
2023/12/09 08:18:06;;;;;;;8.48;7.00;;;5.30;92.30;;;;;;5008514;28;20034;-77
2023/12/09 08:20:34;;;;;;;8.73;7.03;;;5.10;92.30;;;;;;4990508;28;20044;-76
2023/12/09 08:23:03;;;;;;;9.15;7.93;;;5.20;92.30;;;;;;4972936;28;20050;-77
2023/12/09 08:25:30;;;;;;;9.55;7.65;;;5.30;92.30;;;;;;4988532;28;20042;-76
2023/12/09 08:27:58;;;;;;;8.95;6.90;;;5.40;92.50;;;;;;4991684;28;20373;-76
2023/12/09 08:30:25;;;;;;;7.97;7.05;;;5.10;92.50;;;;;;4986398;28;20099;-78
2023/12/09 08:32:53;;;;;;;9.35;7.28;;;5.00;92.50;;;;;;4990925;28;20034;-74
2023/12/09 08:35:21;;;;;;;9.70;7.90;;;5.30;92.60;;;;;;4992287;28;20023;-76
2023/12/09 08:37:48;;;;;;;9.48;7.32;;;5.40;92.50;;;;;;5004739;28;20046;-79
2023/12/09 08:40:15;;;;;;;9.02;7.03;;;5.50;92.00;;;;;;5002835;28;20042;-78
2023/12/09 08:42:45;;;;;;;9.25;7.43;;;5.60;92.30;;;;;;5009528;28;20069;-81
2023/12/09 08:45:15;;;;;;;8.65;7.13;;;5.80;92.20;;;;;;5009398;28;20046;-79
2023/12/09 08:47:43;;;;;;;9.27;7.43;;;5.80;92.00;;;;;;4992124;28;20065;-76
2023/12/09 08:50:13;;;;;;;9.43;7.20;;;5.50;92.10;;;;;;5008986;28;20279;-80
2023/12/09 08:52:52;;;;;;;9.98;7.47;;;5.80;92.40;;;;;;5008687;28;20029;-79
2023/12/09 08:55:20;;;;;;;8.70;7.45;;;6.20;91.90;;;;;;5008094;28;20026;-79
2023/12/09 08:57:48;;;;;;;7.72;6.93;;;6.40;91.40;;;;;;5002526;28;20104;-78
2023/12/09 09:00:20;;;;;;;8.98;7.13;;;6.50;91.10;;;;;;5009287;28;20034;-76
2023/12/09 09:02:49;;;;;;;9.23;6.95;;;6.60;91.30;;;;;;5008936;28;20096;-77
2023/12/09 09:05:17;;;;;;;31.30;20.92;;;6.70;91.10;;;;;;4990825;28;20038;-74
2023/12/09 09:07:45;;;;;;;11.95;9.90;;;6.90;91.60;;;;;;5011341;28;20033;-74
2023/12/09 09:10:13;;;;;;;12.65;8.48;;;6.60;91.40;;;;;;5012837;28;20108;-77
2023/12/09 09:12:40;;;;;;;9.52;8.15;;;6.30;91.50;;;;;;5013147;28;20038;-80
2023/12/09 09:15:08;;;;;;;9.65;7.50;;;6.60;91.50;;;;;;5012277;28;20093;-79
2023/12/09 09:17:36;;;;;;;9.75;7.95;;;6.60;91.50;;;;;;5012988;28;20061;-78
2023/12/09 09:20:04;;;;;;;9.75;7.68;;;6.80;90.90;;;;;;5011948;28;20061;-79
2023/12/09 09:22:33;;;;;;;8.10;7.25;;;7.00;90.90;;;;;;5011438;28;20038;-80
2023/12/09 09:25:01;;;;;;;10.70;7.93;;;6.70;90.80;;;;;;5011527;28;20034;-78
2023/12/09 09:27:29;;;;;;;9.90;8.27;;;6.80;91.20;;;;;;5012529;28;20418;-76
2023/12/09 09:29:56;;;;;;;35.45;18.90;;;7.00;91.00;;;;;;5010119;28;20742;-78
2023/12/09 09:32:23;;;;;;;26.60;16.85;;;7.30;91.50;;;;;;4992798;28;20036;-77
2023/12/09 09:34:51;;;;;;;94.30;49.85;;;7.70;92.10;;;;;;4994162;28;20033;-77
2023/12/09 09:37:19;;;;;;;137.05;79.15;;;8.20;91.30;;;;;;5012238;28;20046;-77
2023/12/09 09:39:47;;;;;;;92.05;52.40;;;8.40;90.10;;;;;;5012380;28;20381;-80
2023/12/09 09:42:32;;;;;;;25.15;17.88;;;8.50;89.80;;;;;;5011692;28;20385;-78
2023/12/09 09:45:09;;;;;;;12.13;10.05;;;8.60;88.20;;;;;;5009410;28;20045;-78
2023/12/09 09:47:37;;;;;;;12.82;9.15;;;8.50;88.50;;;;;;5012238;28;20069;-77
2023/12/09 09:50:06;;;;;;;9.50;7.60;;;8.70;88.40;;;;;;5011346;28;20513;-80
2023/12/09 09:52:36;;;;;;;10.13;7.63;;;8.70;90.10;;;;;;5012044;28;20460;-81
2023/12/09 09:55:08;;;;;;;8.32;6.97;;;8.30;87.50;;;;;;5010513;28;20131;-82
2023/12/09 09:57:37;;;;;;;10.70;7.47;;;8.50;87.40;;;;;;4994726;28;20073;-81
2023/12/09 10:00:16;;;;;;;9.27;7.28;;;8.70;86.90;;;;;;5008558;28;20037;-76
2023/12/09 10:02:46;;;;;;;9.38;7.15;;;8.50;86.50;;;;;;5011311;28;20080;-79
2023/12/09 10:05:20;;;;;;;10.20;7.87;;;8.50;89.90;;;;;;5011717;28;20366;-79
2023/12/09 10:07:47;;;;;;;9.27;6.68;;;8.70;87.40;;;;;;5006698;28;20041;-82
2023/12/09 10:10:16;;;;;;;9.55;6.93;;;8.90;86.20;;;;;;5011761;28;20042;-81
2023/12/09 10:12:45;;;;;;;9.65;6.97;;;9.10;86.00;;;;;;5010741;28;20034;-77
2023/12/09 10:15:13;;;;;;;14.98;6.38;;;9.20;85.20;;;;;;5007765;28;20038;-82
2023/12/09 10:17:40;;;;;;;8.57;7.22;;;9.40;85.10;;;;;;5010097;28;20092;-76
2023/12/09 10:20:09;;;;;;;10.73;7.60;;;8.80;84.60;;;;;;5009523;28;20029;-85
2023/12/09 10:22:38;;;;;;;9.23;7.18;;;8.50;86.20;;;;;;5010782;28;20129;-79
2023/12/09 10:25:07;;;;;;;9.13;7.00;;;8.30;86.80;;;;;;5008649;28;20484;-81
2023/12/09 10:27:34;;;;;;;9.45;7.18;;;8.80;86.80;;;;;;5011779;28;20038;-77
2023/12/09 10:30:03;;;;;;;10.18;6.78;;;9.40;85.50;;;;;;4983055;28;20048;-77
2023/12/09 10:32:33;;;;;;;9.85;6.88;;;9.30;85.00;;;;;;4989305;28;20045;-76
2023/12/09 10:35:01;;;;;;;10.48;7.38;;;9.40;84.50;;;;;;5011240;28;20034;-78
2023/12/09 10:37:31;;;;;;;8.20;6.80;;;9.40;84.50;;;;;;5012350;28;20060;-76
2023/12/09 10:40:03;;;;;;;129.82;73.45;;;9.70;84.00;;;;;;5009311;28;20054;-73
2023/12/09 10:42:31;;;;;;;182.82;104.50;;;10.30;85.30;;;;;;5010306;28;20046;-74
2023/12/09 10:45:05;;;;;;;21.55;17.92;;;10.70;84.40;;;;;;4992215;28;20041;-85
2023/12/09 10:47:33;;;;;;;17.83;8.88;;;11.00;82.80;;;;;;5009623;28;20042;-83
2023/12/09 10:50:02;;;;;;;14.90;9.48;;;11.20;80.90;;;;;;5011183;28;20096;-83
2023/12/09 10:52:30;;;;;;;10.35;8.00;;;11.60;80.50;;;;;;5011854;28;20045;-82
2023/12/09 10:54:58;;;;;;;10.88;7.25;;;11.90;78.30;;;;;;5010815;28;20045;-85
2023/12/09 10:57:27;;;;;;;10.15;7.50;;;15.10;74.40;;;;;;5011945;28;20141;-91
2023/12/09 10:59:56;;;;;;;12.35;6.70;;;18.20;65.60;;;;;;5013046;28;20042;-86
2023/12/09 11:02:26;;;;;;;9.25;6.57;;;19.00;60.10;;;;;;4995765;28;20045;-80
2023/12/09 11:04:54;;;;;;;8.77;6.03;;;20.80;55.70;;;;;;5011177;28;20038;-82
2023/12/09 11:07:23;;;;;;;10.50;6.90;;;22.40;52.40;;;;;;5011879;28;20061;-82
2023/12/09 11:09:51;;;;;;;9.80;6.97;;;21.10;50.90;;;;;;5009256;28;20421;-84
2023/12/09 11:12:30;;;;;;;13.02;8.13;;;21.70;50.30;;;;;;5006922;28;20064;-81
2023/12/09 11:15:31;;;;;;;10.43;7.40;;;21.00;49.90;;;;;;5009183;28;20645;-83
2023/12/09 11:18:13;;;;;;;12.77;8.68;;;20.90;49.70;;;;;;4996560;28;20472;-75
2023/12/09 11:20:41;;;;;;;15.20;11.02;;;21.20;49.40;;;;;;4989409;28;20045;-77
2023/12/09 11:23:11;;;;;;;10.77;7.53;;;21.40;48.60;;;;;;5010220;28;20040;-77
2023/12/09 11:25:43;;;;;;;10.70;7.70;;;21.00;49.30;;;;;;5010010;28;20095;-76
2023/12/09 11:28:14;;;;;;;11.13;7.68;;;21.10;49.90;;;;;;5009835;28;20064;-80
2023/12/09 11:30:42;;;;;;;13.50;8.50;;;20.80;49.00;;;;;;5006841;28;20111;-82
2023/12/09 11:33:10;;;;;;;10.32;7.60;;;21.40;48.60;;;;;;5008315;28;20045;-78
2023/12/09 11:35:39;;;;;;;11.10;7.85;;;21.00;48.70;;;;;;5010728;28;20535;-80
2023/12/09 11:38:08;;;;;;;9.20;6.95;;;20.70;48.40;;;;;;5010231;28;20038;-80
2023/12/09 11:40:36;;;;;;;11.65;7.78;;;20.50;49.80;;;;;;5010226;28;20042;-86
2023/12/09 11:43:06;;;;;;;11.88;8.63;;;17.50;51.60;;;;;;5009775;28;20133;-77
2023/12/09 11:45:35;;;;;;;13.17;8.13;;;18.60;53.00;;;;;;5009490;28;20057;-76
2023/12/09 11:48:04;;;;;;;12.07;7.60;;;16.70;55.30;;;;;;5008239;28;20029;-77
2023/12/09 11:50:31;;;;;;;10.10;7.78;;;14.70;57.90;;;;;;5010678;28;20057;-77
2023/12/09 11:52:59;;;;;;;9.73;7.55;;;13.60;60.40;;;;;;5010688;28;20034;-78
2023/12/09 11:55:26;;;;;;;10.45;7.13;;;12.50;62.20;;;;;;5010443;28;20065;-81
2023/12/09 11:57:53;;;;;;;9.85;7.35;;;12.60;62.70;;;;;;5011373;28;20065;-78
2023/12/09 12:00:21;;;;;;;10.35;7.25;;;12.50;63.10;;;;;;5009946;28;20044;-79
2023/12/09 12:02:49;;;;;;;12.30;7.55;;;12.80;62.70;;;;;;5008888;28;20420;-86
2023/12/09 12:05:16;;;;;;;11.88;8.10;;;13.00;62.30;;;;;;5008071;28;20026;-77
2023/12/09 12:07:44;;;;;;;10.15;7.07;;;13.10;61.70;;;;;;5008422;28;20052;-77
2023/12/09 12:10:14;;;;;;;10.50;7.40;;;13.30;61.50;;;;;;5007639;28;20573;-84
2023/12/09 12:12:43;;;;;;;11.82;7.65;;;13.30;61.10;;;;;;5008437;28;20041;-77
2023/12/09 12:15:12;;;;;;;11.48;8.02;;;14.60;60.70;;;;;;5008022;28;20034;-81
2023/12/09 12:17:40;;;;;;;10.80;7.43;;;17.60;56.30;;;;;;5008566;28;20034;-77
2023/12/09 12:20:11;;;;;;;11.23;7.97;;;19.60;52.30;;;;;;4988066;28;20121;-76
2023/12/09 12:22:42;;;;;;;10.37;8.03;;;20.60;50.40;;;;;;5010554;28;20473;-77
2023/12/09 12:25:09;;;;;;;19.30;12.35;;;20.90;49.70;;;;;;5009309;28;20304;-80
2023/12/09 12:27:46;;;;;;;25.08;18.00;;;22.10;53.60;;;;;;5009329;28;20084;-77
2023/12/09 12:30:14;;;;;;;21.25;14.63;;;23.70;52.70;;;;;;5010059;28;20038;-76
2023/12/09 12:32:42;;;;;;;13.70;9.05;;;23.70;50.20;;;;;;5009394;28;20053;-72
2023/12/09 12:35:11;;;;;;;12.43;8.98;;;24.40;50.10;;;;;;5009633;28;20034;-75
2023/12/09 12:37:38;;;;;;;15.07;8.55;;;23.30;49.40;;;;;;5009649;28;20049;-73
2023/12/09 12:40:06;;;;;;;11.20;8.05;;;24.20;49.70;;;;;;5009158;28;20037;-72
2023/12/09 12:42:34;;;;;;;11.82;7.95;;;24.20;49.20;;;;;;5012611;28;20109;-73
2023/12/09 12:45:06;;;;;;;11.70;7.47;;;22.90;49.80;;;;;;5012677;28;20489;-74
2023/12/09 12:47:33;;;;;;;11.30;7.35;;;22.30;49.40;;;;;;4978043;28;20057;-74
2023/12/09 12:50:01;;;;;;;17.10;12.75;;;22.20;49.70;;;;;;5012006;28;20037;-74
2023/12/09 12:52:28;;;;;;;25.27;17.98;;;21.80;49.10;;;;;;5013441;28;20093;-75